sensor_id;sensor_type;location;lat;lon;timestamp;temperature;humidity
54796;DHT22;40693;43.884;20.340;2023-05-07T00:00:11;409.80;2355.20
54796;DHT22;40693;43.884;20.340;2023-05-07T00:02:40;409.70;2355.20
54796;DHT22;40693;43.884;20.340;2023-05-07T00:05:06;409.60;2355.20
54796;DHT22;40693;43.884;20.340;2023-05-07T00:07:32;409.60;2355.20
54796;DHT22;40693;43.884;20.340;2023-05-07T00:09:58;409.60;2355.20
54796;DHT22;40693;43.884;20.340;2023-05-07T00:12:24;409.60;2355.20
54796;DHT22;40693;43.884;20.340;2023-05-07T00:14:50;409.60;2355.20
54796;DHT22;40693;43.884;20.340;2023-05-07T00:17:16;409.60;2355.20
54796;DHT22;40693;43.884;20.340;2023-05-07T00:19:42;409.60;2355.20
54796;DHT22;40693;43.884;20.340;2023-05-07T00:22:08;384.90;2329.60
54796;DHT22;40693;43.884;20.340;2023-05-07T00:24:34;384.90;2329.60
54796;DHT22;40693;43.884;20.340;2023-05-07T00:27:00;384.80;2329.60
54796;DHT22;40693;43.884;20.340;2023-05-07T00:29:26;384.80;2329.60
54796;DHT22;40693;43.884;20.340;2023-05-07T00:31:51;384.80;2329.60
54796;DHT22;40693;43.884;20.340;2023-05-07T00:34:19;384.80;2329.60
54796;DHT22;40693;43.884;20.340;2023-05-07T00:36:45;384.70;2329.60
54796;DHT22;40693;43.884;20.340;2023-05-07T00:39:11;384.70;2329.60
54796;DHT22;40693;43.884;20.340;2023-05-07T00:41:37;384.60;2329.60
54796;DHT22;40693;43.884;20.340;2023-05-07T00:44:03;384.60;2329.60
54796;DHT22;40693;43.884;20.340;2023-05-07T00:46:29;384.60;2329.60
54796;DHT22;40693;43.884;20.340;2023-05-07T00:48:56;384.50;2329.60
54796;DHT22;40693;43.884;20.340;2023-05-07T00:51:24;384.50;2329.60
54796;DHT22;40693;43.884;20.340;2023-05-07T00:53:52;384.50;2329.60
54796;DHT22;40693;43.884;20.340;2023-05-07T00:56:20;384.40;2329.60
54796;DHT22;40693;43.884;20.340;2023-05-07T00:58:46;384.40;2329.60
54796;DHT22;40693;43.884;20.340;2023-05-07T01:01:11;384.40;2329.60
54796;DHT22;40693;43.884;20.340;2023-05-07T01:03:37;384.30;2329.60
54796;DHT22;40693;43.884;20.340;2023-05-07T01:06:04;384.30;2329.60
54796;DHT22;40693;43.884;20.340;2023-05-07T01:08:32;384.30;2329.60
54796;DHT22;40693;43.884;20.340;2023-05-07T01:11:00;384.30;2329.60
54796;DHT22;40693;43.884;20.340;2023-05-07T01:13:27;384.30;2329.60
54796;DHT22;40693;43.884;20.340;2023-05-07T01:15:53;384.30;2329.60
54796;DHT22;40693;43.884;20.340;2023-05-07T01:18:19;384.30;2329.60
54796;DHT22;40693;43.884;20.340;2023-05-07T01:20:45;384.30;2329.60
54796;DHT22;40693;43.884;20.340;2023-05-07T01:23:11;384.20;2329.60
54796;DHT22;40693;43.884;20.340;2023-05-07T01:25:37;384.20;2329.60
54796;DHT22;40693;43.884;20.340;2023-05-07T01:28:03;384.20;2329.60
54796;DHT22;40693;43.884;20.340;2023-05-07T01:30:29;384.20;2329.60
54796;DHT22;40693;43.884;20.340;2023-05-07T01:33:06;384.10;2329.60
54796;DHT22;40693;43.884;20.340;2023-05-07T01:35:45;384.10;2329.60
54796;DHT22;40693;43.884;20.340;2023-05-07T01:38:13;384.10;2329.60
54796;DHT22;40693;43.884;20.340;2023-05-07T01:40:39;384.00;2329.60
54796;DHT22;40693;43.884;20.340;2023-05-07T01:43:05;384.00;2329.60
54796;DHT22;40693;43.884;20.340;2023-05-07T01:45:32;359.30;2329.60
54796;DHT22;40693;43.884;20.340;2023-05-07T01:48:01;359.20;2329.60
54796;DHT22;40693;43.884;20.340;2023-05-07T01:50:27;359.20;2329.60
54796;DHT22;40693;43.884;20.340;2023-05-07T01:52:53;359.20;2329.60
54796;DHT22;40693;43.884;20.340;2023-05-07T01:55:19;359.20;2329.60
54796;DHT22;40693;43.884;20.340;2023-05-07T01:57:45;359.20;2329.60
54796;DHT22;40693;43.884;20.340;2023-05-07T02:00:11;359.20;2329.60
54796;DHT22;40693;43.884;20.340;2023-05-07T02:02:37;359.10;2329.60
54796;DHT22;40693;43.884;20.340;2023-05-07T02:05:04;359.10;2329.60
54796;DHT22;40693;43.884;20.340;2023-05-07T02:07:30;358.60;2329.60
54796;DHT22;40693;43.884;20.340;2023-05-07T02:09:56;359.00;2329.60
54796;DHT22;40693;43.884;20.340;2023-05-07T02:12:22;359.00;2329.60
54796;DHT22;40693;43.884;20.340;2023-05-07T02:14:49;359.00;2329.60
54796;DHT22;40693;43.884;20.340;2023-05-07T02:17:14;359.00;2329.60
54796;DHT22;40693;43.884;20.340;2023-05-07T02:19:40;359.00;2329.60
54796;DHT22;40693;43.884;20.340;2023-05-07T02:22:07;359.00;2329.60
54796;DHT22;40693;43.884;20.340;2023-05-07T02:24:33;359.00;2329.60
54796;DHT22;40693;43.884;20.340;2023-05-07T02:26:58;358.90;2329.60
54796;DHT22;40693;43.884;20.340;2023-05-07T02:29:24;358.90;2329.60
54796;DHT22;40693;43.884;20.340;2023-05-07T02:31:50;358.90;2329.60
54796;DHT22;40693;43.884;20.340;2023-05-07T02:34:18;358.90;2329.60
54796;DHT22;40693;43.884;20.340;2023-05-07T02:36:44;358.90;2329.60
54796;DHT22;40693;43.884;20.340;2023-05-07T02:39:09;358.90;2329.60
54796;DHT22;40693;43.884;20.340;2023-05-07T02:41:35;358.90;2329.60
54796;DHT22;40693;43.884;20.340;2023-05-07T02:44:01;358.80;2329.60
54796;DHT22;40693;43.884;20.340;2023-05-07T02:46:26;358.80;2329.60
54796;DHT22;40693;43.884;20.340;2023-05-07T02:48:52;358.80;2329.60
54796;DHT22;40693;43.884;20.340;2023-05-07T02:51:20;358.80;2329.60
54796;DHT22;40693;43.884;20.340;2023-05-07T02:53:45;358.80;2329.60
54796;DHT22;40693;43.884;20.340;2023-05-07T02:56:11;358.70;2329.60
54796;DHT22;40693;43.884;20.340;2023-05-07T02:58:37;358.70;2329.60
54796;DHT22;40693;43.884;20.340;2023-05-07T03:01:05;358.70;2329.60
54796;DHT22;40693;43.884;20.340;2023-05-07T03:03:31;358.60;2329.60
54796;DHT22;40693;43.884;20.340;2023-05-07T03:05:57;358.60;2329.60
54796;DHT22;40693;43.884;20.340;2023-05-07T03:08:23;358.60;2329.60
54796;DHT22;40693;43.884;20.340;2023-05-07T03:10:49;358.60;2329.60
54796;DHT22;40693;43.884;20.340;2023-05-07T03:13:15;358.60;2329.60
54796;DHT22;40693;43.884;20.340;2023-05-07T03:15:41;358.60;2329.60
54796;DHT22;40693;43.884;20.340;2023-05-07T03:18:07;358.60;2329.60
54796;DHT22;40693;43.884;20.340;2023-05-07T03:20:32;358.50;2329.60
54796;DHT22;40693;43.884;20.340;2023-05-07T03:22:58;358.50;2329.60
54796;DHT22;40693;43.884;20.340;2023-05-07T03:25:24;358.50;2329.60
54796;DHT22;40693;43.884;20.340;2023-05-07T03:27:50;358.50;2329.60
54796;DHT22;40693;43.884;20.340;2023-05-07T03:30:16;358.50;2329.60
54796;DHT22;40693;43.884;20.340;2023-05-07T03:32:41;358.50;2329.60
54796;DHT22;40693;43.884;20.340;2023-05-07T03:35:07;358.50;2329.60
54796;DHT22;40693;43.884;20.340;2023-05-07T03:37:33;358.50;2329.60
54796;DHT22;40693;43.884;20.340;2023-05-07T03:39:59;358.50;2329.60
54796;DHT22;40693;43.884;20.340;2023-05-07T03:42:25;358.40;2329.60
54796;DHT22;40693;43.884;20.340;2023-05-07T03:44:51;333.70;2329.60
54796;DHT22;40693;43.884;20.340;2023-05-07T03:47:17;333.70;2329.60
54796;DHT22;40693;43.884;20.340;2023-05-07T03:49:45;333.70;2329.60
54796;DHT22;40693;43.884;20.340;2023-05-07T03:52:11;333.70;2329.60
54796;DHT22;40693;43.884;20.340;2023-05-07T03:54:36;333.70;2329.60
54796;DHT22;40693;43.884;20.340;2023-05-07T03:57:02;333.70;2329.60
54796;DHT22;40693;43.884;20.340;2023-05-07T03:59:28;333.70;2329.60
54796;DHT22;40693;43.884;20.340;2023-05-07T04:01:54;333.70;2329.60
54796;DHT22;40693;43.884;20.340;2023-05-07T04:04:20;333.70;2329.60
54796;DHT22;40693;43.884;20.340;2023-05-07T04:06:46;333.70;2329.60
54796;DHT22;40693;43.884;20.340;2023-05-07T04:09:12;333.70;2329.60
54796;DHT22;40693;43.884;20.340;2023-05-07T04:11:38;333.70;2329.60
54796;DHT22;40693;43.884;20.340;2023-05-07T04:14:05;358.40;2329.60
54796;DHT22;40693;43.884;20.340;2023-05-07T04:16:31;333.70;2329.60
54796;DHT22;40693;43.884;20.340;2023-05-07T04:18:57;333.70;2329.60
54796;DHT22;40693;43.884;20.340;2023-05-07T04:21:23;333.70;2329.60
54796;DHT22;40693;43.884;20.340;2023-05-07T04:23:49;333.70;2329.60
54796;DHT22;40693;43.884;20.340;2023-05-07T04:26:15;333.70;2329.60
54796;DHT22;40693;43.884;20.340;2023-05-07T04:28:41;333.70;2329.60
54796;DHT22;40693;43.884;20.340;2023-05-07T04:31:08;333.60;2329.60
54796;DHT22;40693;43.884;20.340;2023-05-07T04:33:34;333.70;2329.60
54796;DHT22;40693;43.884;20.340;2023-05-07T04:36:03;358.40;2329.60
54796;DHT22;40693;43.884;20.340;2023-05-07T04:38:30;358.40;2329.60
54796;DHT22;40693;43.884;20.340;2023-05-07T04:40:58;333.70;2329.60
54796;DHT22;40693;43.884;20.340;2023-05-07T04:43:24;333.70;2329.60
54796;DHT22;40693;43.884;20.340;2023-05-07T04:45:51;333.70;2329.60
54796;DHT22;40693;43.884;20.340;2023-05-07T04:48:16;333.70;2329.60
54796;DHT22;40693;43.884;20.340;2023-05-07T04:50:47;333.70;2329.60
54796;DHT22;40693;43.884;20.340;2023-05-07T04:53:12;358.40;2329.60
54796;DHT22;40693;43.884;20.340;2023-05-07T04:55:38;358.50;2329.60
54796;DHT22;40693;43.884;20.340;2023-05-07T04:58:04;358.50;2329.60
54796;DHT22;40693;43.884;20.340;2023-05-07T05:00:30;358.50;2329.60
54796;DHT22;40693;43.884;20.340;2023-05-07T05:02:56;358.60;2329.60
54796;DHT22;40693;43.884;20.340;2023-05-07T05:05:22;358.70;2329.60
54796;DHT22;40693;43.884;20.340;2023-05-07T05:07:47;358.70;2329.60
54796;DHT22;40693;43.884;20.340;2023-05-07T05:10:13;358.60;2329.60
54796;DHT22;40693;43.884;20.340;2023-05-07T05:12:39;358.70;2329.60
54796;DHT22;40693;43.884;20.340;2023-05-07T05:15:06;358.70;2329.60
54796;DHT22;40693;43.884;20.340;2023-05-07T05:17:31;358.90;2329.60
54796;DHT22;40693;43.884;20.340;2023-05-07T05:19:59;358.90;2329.60
54796;DHT22;40693;43.884;20.340;2023-05-07T05:22:25;358.90;2329.60
54796;DHT22;40693;43.884;20.340;2023-05-07T05:24:52;359.00;2329.60
54796;DHT22;40693;43.884;20.340;2023-05-07T05:27:17;359.10;2329.60
54796;DHT22;40693;43.884;20.340;2023-05-07T05:29:43;359.10;2329.60
54796;DHT22;40693;43.884;20.340;2023-05-07T05:32:09;359.30;2329.60
54796;DHT22;40693;43.884;20.340;2023-05-07T05:34:35;359.30;2329.60
54796;DHT22;40693;43.884;20.340;2023-05-07T05:37:01;359.30;2329.60
54796;DHT22;40693;43.884;20.340;2023-05-07T05:39:27;359.30;2329.60
54796;DHT22;40693;43.884;20.340;2023-05-07T05:41:52;359.30;2329.60
54796;DHT22;40693;43.884;20.340;2023-05-07T05:44:18;359.30;2329.60
54796;DHT22;40693;43.884;20.340;2023-05-07T05:46:44;384.10;2329.60
54796;DHT22;40693;43.884;20.340;2023-05-07T05:49:10;384.10;2329.60
54796;DHT22;40693;43.884;20.340;2023-05-07T05:51:35;384.20;2329.60
54796;DHT22;40693;43.884;20.340;2023-05-07T05:54:01;384.30;2329.60
54796;DHT22;40693;43.884;20.340;2023-05-07T05:56:27;384.40;2329.60
54796;DHT22;40693;43.884;20.340;2023-05-07T05:58:53;384.40;2329.60
54796;DHT22;40693;43.884;20.340;2023-05-07T06:01:19;384.40;2329.60
54796;DHT22;40693;43.884;20.340;2023-05-07T06:03:44;384.50;2329.60
54796;DHT22;40693;43.884;20.340;2023-05-07T06:06:10;384.60;2329.60
54796;DHT22;40693;43.884;20.340;2023-05-07T06:08:36;384.80;2329.60
54796;DHT22;40693;43.884;20.340;2023-05-07T06:11:02;384.80;2329.60
54796;DHT22;40693;43.884;20.340;2023-05-07T06:13:28;384.90;2329.60
54796;DHT22;40693;43.884;20.340;2023-05-07T06:15:54;384.90;2329.60
54796;DHT22;40693;43.884;20.340;2023-05-07T06:18:19;409.60;2355.20
54796;DHT22;40693;43.884;20.340;2023-05-07T06:20:45;409.80;2355.20
54796;DHT22;40693;43.884;20.340;2023-05-07T06:23:11;410.00;2355.20
54796;DHT22;40693;43.884;20.340;2023-05-07T06:25:36;410.10;2355.20
54796;DHT22;40693;43.884;20.340;2023-05-07T06:28:02;410.20;2355.20
54796;DHT22;40693;43.884;20.340;2023-05-07T06:30:28;410.30;2355.20
54796;DHT22;40693;43.884;20.340;2023-05-07T06:32:54;435.20;2355.20
54796;DHT22;40693;43.884;20.340;2023-05-07T06:35:19;435.40;2355.20
54796;DHT22;40693;43.884;20.340;2023-05-07T06:37:45;435.70;2355.20
54796;DHT22;40693;43.884;20.340;2023-05-07T06:40:11;435.80;2355.20
54796;DHT22;40693;43.884;20.340;2023-05-07T06:42:37;436.10;2355.20
54796;DHT22;40693;43.884;20.340;2023-05-07T06:45:03;460.80;2380.80
54796;DHT22;40693;43.884;20.340;2023-05-07T06:47:29;461.00;2380.80
54796;DHT22;40693;43.884;20.340;2023-05-07T06:49:55;461.00;2380.80
54796;DHT22;40693;43.884;20.340;2023-05-07T06:52:21;461.20;2380.80
54796;DHT22;40693;43.884;20.340;2023-05-07T06:54:47;461.30;2380.80
54796;DHT22;40693;43.884;20.340;2023-05-07T06:57:12;461.30;2380.80
54796;DHT22;40693;43.884;20.340;2023-05-07T06:59:38;461.50;2380.80
54796;DHT22;40693;43.884;20.340;2023-05-07T07:02:04;461.50;2380.80
54796;DHT22;40693;43.884;20.340;2023-05-07T07:04:30;461.60;2380.80
54796;DHT22;40693;43.884;20.340;2023-05-07T07:06:56;461.70;2380.80
54796;DHT22;40693;43.884;20.340;2023-05-07T07:09:22;486.40;2380.80
54796;DHT22;40693;43.884;20.340;2023-05-07T07:11:48;486.50;2380.80
54796;DHT22;40693;43.884;20.340;2023-05-07T07:14:13;486.50;2355.20
54796;DHT22;40693;43.884;20.340;2023-05-07T07:16:39;486.60;2304.00
54796;DHT22;40693;43.884;20.340;2023-05-07T07:19:06;486.70;2329.60
54796;DHT22;40693;43.884;20.340;2023-05-07T07:21:31;486.80;2304.00
54796;DHT22;40693;43.884;20.340;2023-05-07T07:23:58;487.00;2252.80
54796;DHT22;40693;43.884;20.340;2023-05-07T07:26:24;487.00;2355.20
54796;DHT22;40693;43.884;20.340;2023-05-07T07:28:49;487.20;2278.40
54796;DHT22;40693;43.884;20.340;2023-05-07T07:31:15;487.30;2227.20
54796;DHT22;40693;43.884;20.340;2023-05-07T07:33:41;512.10;2176.00
54796;DHT22;40693;43.884;20.340;2023-05-07T07:36:07;512.20;2176.00
54796;DHT22;40693;43.884;20.340;2023-05-07T07:38:33;512.20;2201.60
54796;DHT22;40693;43.884;20.340;2023-05-07T07:41:00;512.40;2176.00
54796;DHT22;40693;43.884;20.340;2023-05-07T07:43:25;512.50;2150.40
54796;DHT22;40693;43.884;20.340;2023-05-07T07:45:51;512.50;2124.80
54796;DHT22;40693;43.884;20.340;2023-05-07T07:48:17;512.70;2124.80
54796;DHT22;40693;43.884;20.340;2023-05-07T07:50:42;512.70;2022.40
54796;DHT22;40693;43.884;20.340;2023-05-07T07:53:08;512.90;2022.40
54796;DHT22;40693;43.884;20.340;2023-05-07T07:55:38;537.60;2022.40
54796;DHT22;40693;43.884;20.340;2023-05-07T07:58:05;537.60;1971.20
54796;DHT22;40693;43.884;20.340;2023-05-07T08:00:30;537.70;1945.60
54796;DHT22;40693;43.884;20.340;2023-05-07T08:02:56;537.80;1971.20
54796;DHT22;40693;43.884;20.340;2023-05-07T08:05:22;537.80;1971.20
54796;DHT22;40693;43.884;20.340;2023-05-07T08:07:48;538.00;2048.00
54796;DHT22;40693;43.884;20.340;2023-05-07T08:10:18;538.00;2022.40
54796;DHT22;40693;43.884;20.340;2023-05-07T08:12:50;538.20;1971.20
54796;DHT22;40693;43.884;20.340;2023-05-07T08:15:16;538.40;1971.20
54796;DHT22;40693;43.884;20.340;2023-05-07T08:17:43;538.50;1868.80
54796;DHT22;40693;43.884;20.340;2023-05-07T08:20:09;538.50;1945.60
54796;DHT22;40693;43.884;20.340;2023-05-07T08:22:35;563.20;1996.80
54796;DHT22;40693;43.884;20.340;2023-05-07T08:25:01;563.40;1920.00
54796;DHT22;40693;43.884;20.340;2023-05-07T08:27:27;563.50;1920.00
54796;DHT22;40693;43.884;20.340;2023-05-07T08:29:53;563.60;1996.80
54796;DHT22;40693;43.884;20.340;2023-05-07T08:32:20;563.20;1971.20
54796;DHT22;40693;43.884;20.340;2023-05-07T08:34:46;563.80;1945.60
54796;DHT22;40693;43.884;20.340;2023-05-07T08:37:12;563.90;1894.40
54796;DHT22;40693;43.884;20.340;2023-05-07T08:39:38;564.10;1971.20
54796;DHT22;40693;43.884;20.340;2023-05-07T08:42:04;564.10;1920.00
54796;DHT22;40693;43.884;20.340;2023-05-07T08:44:33;588.80;1868.80
54796;DHT22;40693;43.884;20.340;2023-05-07T08:47:01;589.00;1868.80
54796;DHT22;40693;43.884;20.340;2023-05-07T08:49:28;589.00;1920.00
54796;DHT22;40693;43.884;20.340;2023-05-07T08:51:54;589.20;1945.60
54796;DHT22;40693;43.884;20.340;2023-05-07T08:54:22;589.30;1792.00
54796;DHT22;40693;43.884;20.340;2023-05-07T08:56:48;589.50;1792.00
54796;DHT22;40693;43.884;20.340;2023-05-07T08:59:14;589.70;1843.20
54796;DHT22;40693;43.884;20.340;2023-05-07T09:01:40;614.40;1792.00
54796;DHT22;40693;43.884;20.340;2023-05-07T09:04:05;614.50;1740.80
54796;DHT22;40693;43.884;20.340;2023-05-07T09:06:33;614.50;1766.40
54796;DHT22;40693;43.884;20.340;2023-05-07T09:08:59;614.60;1766.40
54796;DHT22;40693;43.884;20.340;2023-05-07T09:11:26;614.70;1792.00
54796;DHT22;40693;43.884;20.340;2023-05-07T09:13:56;614.80;1817.60
54796;DHT22;40693;43.884;20.340;2023-05-07T09:16:24;614.90;1792.00
54796;DHT22;40693;43.884;20.340;2023-05-07T09:18:54;615.10;1817.60
54796;DHT22;40693;43.884;20.340;2023-05-07T09:21:21;615.20;1715.20
54796;DHT22;40693;43.884;20.340;2023-05-07T09:23:52;615.30;1740.80
54796;DHT22;40693;43.884;20.340;2023-05-07T09:26:18;640.10;1715.20
54796;DHT22;40693;43.884;20.340;2023-05-07T09:28:44;640.10;1689.60
54796;DHT22;40693;43.884;20.340;2023-05-07T09:31:11;640.00;1638.40
54796;DHT22;40693;43.884;20.340;2023-05-07T09:33:37;640.20;1638.40
54796;DHT22;40693;43.884;20.340;2023-05-07T09:36:04;640.20;1638.40
54796;DHT22;40693;43.884;20.340;2023-05-07T09:38:31;640.40;1587.20
54796;DHT22;40693;43.884;20.340;2023-05-07T09:41:09;640.40;1612.80
54796;DHT22;40693;43.884;20.340;2023-05-07T09:43:37;640.50;1561.60
54796;DHT22;40693;43.884;20.340;2023-05-07T09:46:07;640.50;1587.20
54796;DHT22;40693;43.884;20.340;2023-05-07T09:48:37;640.60;1638.40
54796;DHT22;40693;43.884;20.340;2023-05-07T09:53:38;640.90;1664.00
54796;DHT22;40693;43.884;20.340;2023-05-07T09:56:05;665.70;1638.40
54796;DHT22;40693;43.884;20.340;2023-05-07T09:58:32;665.80;1561.60
54796;DHT22;40693;43.884;20.340;2023-05-07T10:00:59;666.00;1638.40
54796;DHT22;40693;43.884;20.340;2023-05-07T10:03:27;666.00;1561.60
54796;DHT22;40693;43.884;20.340;2023-05-07T10:05:55;666.00;1510.40
54796;DHT22;40693;43.884;20.340;2023-05-07T10:08:21;666.00;1536.00
54796;DHT22;40693;43.884;20.340;2023-05-07T10:10:47;666.20;1459.20
54796;DHT22;40693;43.884;20.340;2023-05-07T10:13:14;666.40;1484.80
54796;DHT22;40693;43.884;20.340;2023-05-07T10:15:40;691.20;1459.20
54796;DHT22;40693;43.884;20.340;2023-05-07T10:18:06;691.40;1484.80
54796;DHT22;40693;43.884;20.340;2023-05-07T10:20:34;691.60;1459.20
54796;DHT22;40693;43.884;20.340;2023-05-07T10:23:04;691.70;1484.80
54796;DHT22;40693;43.884;20.340;2023-05-07T10:25:31;691.60;1408.00
54796;DHT22;40693;43.884;20.340;2023-05-07T10:28:03;691.80;1433.60
54796;DHT22;40693;43.884;20.340;2023-05-07T10:30:53;691.80;1408.00
54796;DHT22;40693;43.884;20.340;2023-05-07T10:33:25;692.10;1408.00
54796;DHT22;40693;43.884;20.340;2023-05-07T10:35:57;716.80;1408.00
54796;DHT22;40693;43.884;20.340;2023-05-07T10:38:24;717.00;1433.60
54796;DHT22;40693;43.884;20.340;2023-05-07T10:40:51;717.20;1408.00
54796;DHT22;40693;43.884;20.340;2023-05-07T10:43:17;717.40;1356.80
54796;DHT22;40693;43.884;20.340;2023-05-07T10:45:42;717.50;1459.20
54796;DHT22;40693;43.884;20.340;2023-05-07T10:48:13;717.70;1382.40
54796;DHT22;40693;43.884;20.340;2023-05-07T10:50:40;742.50;1459.20
54796;DHT22;40693;43.884;20.340;2023-05-07T10:55:46;742.70;1408.00
54796;DHT22;40693;43.884;20.340;2023-05-07T11:00:49;743.00;1331.20
54796;DHT22;40693;43.884;20.340;2023-05-07T11:03:15;743.00;1408.00
54796;DHT22;40693;43.884;20.340;2023-05-07T11:05:43;743.00;1254.40
54796;DHT22;40693;43.884;20.340;2023-05-07T11:08:09;743.00;1331.20
54796;DHT22;40693;43.884;20.340;2023-05-07T11:10:51;743.00;1433.60
54796;DHT22;40693;43.884;20.340;2023-05-07T11:13:17;743.10;1356.80
54796;DHT22;40693;43.884;20.340;2023-05-07T11:15:47;743.30;1331.20
54796;DHT22;40693;43.884;20.340;2023-05-07T11:18:15;743.30;1408.00
54796;DHT22;40693;43.884;20.340;2023-05-07T11:20:45;768.00;1356.80
54796;DHT22;40693;43.884;20.340;2023-05-07T11:26:09;743.30;1305.60
54796;DHT22;40693;43.884;20.340;2023-05-07T11:28:39;743.30;1305.60
54796;DHT22;40693;43.884;20.340;2023-05-07T11:31:05;768.00;1331.20
54796;DHT22;40693;43.884;20.340;2023-05-07T11:33:32;768.20;1356.80
54796;DHT22;40693;43.884;20.340;2023-05-07T11:35:58;768.40;1356.80
54796;DHT22;40693;43.884;20.340;2023-05-07T11:38:25;768.60;1331.20
54796;DHT22;40693;43.884;20.340;2023-05-07T11:40:52;768.50;1305.60
54796;DHT22;40693;43.884;20.340;2023-05-07T11:43:19;768.70;1280.00
54796;DHT22;40693;43.884;20.340;2023-05-07T11:45:45;768.60;1305.60
54796;DHT22;40693;43.884;20.340;2023-05-07T11:48:12;768.80;1228.80
54796;DHT22;40693;43.884;20.340;2023-05-07T11:51:01;768.90;1280.00
54796;DHT22;40693;43.884;20.340;2023-05-07T11:53:33;793.70;1305.60
54796;DHT22;40693;43.884;20.340;2023-05-07T11:56:02;793.70;1280.00
54796;DHT22;40693;43.884;20.340;2023-05-07T11:58:31;793.90;1280.00
54796;DHT22;40693;43.884;20.340;2023-05-07T12:00:57;793.80;1228.80
54796;DHT22;40693;43.884;20.340;2023-05-07T12:03:22;793.60;1228.80
54796;DHT22;40693;43.884;20.340;2023-05-07T12:05:48;793.90;1280.00
54796;DHT22;40693;43.884;20.340;2023-05-07T12:08:15;793.90;1203.20
54796;DHT22;40693;43.884;20.340;2023-05-07T12:10:44;793.70;1177.60
54796;DHT22;40693;43.884;20.340;2023-05-07T12:13:17;793.60;1203.20
54796;DHT22;40693;43.884;20.340;2023-05-07T12:15:43;793.80;1203.20
54796;DHT22;40693;43.884;20.340;2023-05-07T12:18:11;794.00;1177.60
54796;DHT22;40693;43.884;20.340;2023-05-07T12:20:37;794.00;1177.60
54796;DHT22;40693;43.884;20.340;2023-05-07T12:23:03;794.00;1280.00
54796;DHT22;40693;43.884;20.340;2023-05-07T12:25:36;794.10;1228.80
54796;DHT22;40693;43.884;20.340;2023-05-07T12:28:03;794.00;1203.20
54796;DHT22;40693;43.884;20.340;2023-05-07T12:30:36;794.10;1228.80
54796;DHT22;40693;43.884;20.340;2023-05-07T12:33:02;794.20;1228.80
54796;DHT22;40693;43.884;20.340;2023-05-07T12:35:32;794.40;1203.20
54796;DHT22;40693;43.884;20.340;2023-05-07T12:38:01;794.50;1228.80
54796;DHT22;40693;43.884;20.340;2023-05-07T12:40:40;794.50;1177.60
54796;DHT22;40693;43.884;20.340;2023-05-07T12:43:06;819.20;1203.20
54796;DHT22;40693;43.884;20.340;2023-05-07T12:45:37;794.30;1152.00
54796;DHT22;40693;43.884;20.340;2023-05-07T12:48:04;794.30;1203.20
54796;DHT22;40693;43.884;20.340;2023-05-07T12:50:33;794.50;1228.80
54796;DHT22;40693;43.884;20.340;2023-05-07T12:52:59;819.30;1203.20
54796;DHT22;40693;43.884;20.340;2023-05-07T12:55:25;819.30;1152.00
54796;DHT22;40693;43.884;20.340;2023-05-07T12:57:57;819.30;1152.00
54796;DHT22;40693;43.884;20.340;2023-05-07T13:00:38;819.60;1228.80
54796;DHT22;40693;43.884;20.340;2023-05-07T13:03:04;819.70;1254.40
54796;DHT22;40693;43.884;20.340;2023-05-07T13:05:31;819.70;1177.60
54796;DHT22;40693;43.884;20.340;2023-05-07T13:07:58;819.80;1152.00
54796;DHT22;40693;43.884;20.340;2023-05-07T13:10:24;819.80;1126.40
54796;DHT22;40693;43.884;20.340;2023-05-07T13:12:51;819.90;1126.40
54796;DHT22;40693;43.884;20.340;2023-05-07T13:15:18;819.90;1126.40
54796;DHT22;40693;43.884;20.340;2023-05-07T13:17:45;819.80;1126.40
54796;DHT22;40693;43.884;20.340;2023-05-07T13:20:12;819.90;1126.40
54796;DHT22;40693;43.884;20.340;2023-05-07T13:22:39;844.90;1126.40
54796;DHT22;40693;43.884;20.340;2023-05-07T13:25:05;845.00;1126.40
54796;DHT22;40693;43.884;20.340;2023-05-07T13:27:32;820.10;1100.80
54796;DHT22;40693;43.884;20.340;2023-05-07T13:29:57;844.90;1126.40
54796;DHT22;40693;43.884;20.340;2023-05-07T13:32:23;844.90;1100.80
54796;DHT22;40693;43.884;20.340;2023-05-07T13:34:49;820.10;1075.20
54796;DHT22;40693;43.884;20.340;2023-05-07T13:37:14;820.00;1024.00
54796;DHT22;40693;43.884;20.340;2023-05-07T13:39:40;819.60;1049.60
54796;DHT22;40693;43.884;20.340;2023-05-07T13:42:09;819.30;1100.80
54796;DHT22;40693;43.884;20.340;2023-05-07T13:44:35;794.50;1100.80
54796;DHT22;40693;43.884;20.340;2023-05-07T13:47:01;794.20;1100.80
54796;DHT22;40693;43.884;20.340;2023-05-07T13:49:27;794.00;1126.40
54796;DHT22;40693;43.884;20.340;2023-05-07T13:51:53;793.80;1126.40
54796;DHT22;40693;43.884;20.340;2023-05-07T13:54:18;793.80;1152.00
54796;DHT22;40693;43.884;20.340;2023-05-07T13:56:44;793.70;1177.60
54796;DHT22;40693;43.884;20.340;2023-05-07T13:59:10;793.90;1177.60
54796;DHT22;40693;43.884;20.340;2023-05-07T14:01:37;793.90;1177.60
54796;DHT22;40693;43.884;20.340;2023-05-07T14:04:03;793.70;1177.60
54796;DHT22;40693;43.884;20.340;2023-05-07T14:06:29;793.80;1100.80
54796;DHT22;40693;43.884;20.340;2023-05-07T14:08:55;793.90;1126.40
54796;DHT22;40693;43.884;20.340;2023-05-07T14:11:23;794.00;1177.60
54796;DHT22;40693;43.884;20.340;2023-05-07T14:13:49;794.10;1152.00
54796;DHT22;40693;43.884;20.340;2023-05-07T14:16:14;794.00;1177.60
54796;DHT22;40693;43.884;20.340;2023-05-07T14:18:40;794.00;1152.00
54796;DHT22;40693;43.884;20.340;2023-05-07T14:21:06;794.10;1126.40
54796;DHT22;40693;43.884;20.340;2023-05-07T14:23:35;794.20;1126.40
54796;DHT22;40693;43.884;20.340;2023-05-07T14:26:00;794.30;1152.00
54796;DHT22;40693;43.884;20.340;2023-05-07T14:28:26;794.50;1100.80
54796;DHT22;40693;43.884;20.340;2023-05-07T14:30:52;819.20;1126.40
54796;DHT22;40693;43.884;20.340;2023-05-07T14:33:17;819.20;1100.80
54796;DHT22;40693;43.884;20.340;2023-05-07T14:35:44;819.20;1100.80
54796;DHT22;40693;43.884;20.340;2023-05-07T14:38:15;819.40;1100.80
54796;DHT22;40693;43.884;20.340;2023-05-07T14:40:41;819.50;1100.80
54796;DHT22;40693;43.884;20.340;2023-05-07T14:43:06;819.60;1100.80